sensor_id;sensor_type;location;lat;lon;timestamp;P1;durP1;ratioP1;P2;durP2;ratioP2
56343;SDS011;42245;42.058;24.700;2023-04-06T00:01:12;16.73;;;11.33;;
56343;SDS011;42245;42.058;24.700;2023-04-06T00:03:37;16.43;;;11.73;;
56343;SDS011;42245;42.058;24.700;2023-04-06T00:06:03;14.73;;;10.77;;
56343;SDS011;42245;42.058;24.700;2023-04-06T00:08:29;18.17;;;11.70;;
56343;SDS011;42245;42.058;24.700;2023-04-06T00:10:55;15.70;;;11.67;;
56343;SDS011;42245;42.058;24.700;2023-04-06T00:13:21;18.20;;;11.97;;
56343;SDS011;42245;42.058;24.700;2023-04-06T00:15:46;16.37;;;11.67;;
56343;SDS011;42245;42.058;24.700;2023-04-06T00:18:12;16.77;;;11.63;;
56343;SDS011;42245;42.058;24.700;2023-04-06T00:20:37;17.30;;;11.83;;
56343;SDS011;42245;42.058;24.700;2023-04-06T00:23:03;18.27;;;12.60;;
56343;SDS011;42245;42.058;24.700;2023-04-06T00:25:28;17.40;;;12.30;;
56343;SDS011;42245;42.058;24.700;2023-04-06T00:27:54;15.87;;;10.23;;
56343;SDS011;42245;42.058;24.700;2023-04-06T00:30:19;17.13;;;11.70;;
56343;SDS011;42245;42.058;24.700;2023-04-06T00:32:45;14.87;;;11.03;;
56343;SDS011;42245;42.058;24.700;2023-04-06T00:35:11;16.07;;;11.43;;
56343;SDS011;42245;42.058;24.700;2023-04-06T00:37:36;15.37;;;10.70;;
56343;SDS011;42245;42.058;24.700;2023-04-06T00:40:02;15.93;;;10.90;;
56343;SDS011;42245;42.058;24.700;2023-04-06T00:42:27;16.07;;;10.80;;
56343;SDS011;42245;42.058;24.700;2023-04-06T00:44:53;19.33;;;11.77;;
56343;SDS011;42245;42.058;24.700;2023-04-06T00:47:20;16.33;;;10.93;;
56343;SDS011;42245;42.058;24.700;2023-04-06T00:49:47;14.50;;;10.87;;
56343;SDS011;42245;42.058;24.700;2023-04-06T00:52:12;16.07;;;11.07;;
56343;SDS011;42245;42.058;24.700;2023-04-06T00:54:38;17.10;;;11.30;;
56343;SDS011;42245;42.058;24.700;2023-04-06T00:57:03;19.10;;;11.83;;
56343;SDS011;42245;42.058;24.700;2023-04-06T00:59:29;15.73;;;11.03;;
56343;SDS011;42245;42.058;24.700;2023-04-06T01:01:55;14.97;;;10.60;;
56343;SDS011;42245;42.058;24.700;2023-04-06T01:04:21;16.80;;;10.57;;
56343;SDS011;42245;42.058;24.700;2023-04-06T01:06:48;16.37;;;11.83;;
56343;SDS011;42245;42.058;24.700;2023-04-06T01:09:14;16.03;;;11.20;;
56343;SDS011;42245;42.058;24.700;2023-04-06T01:11:40;16.63;;;11.30;;
56343;SDS011;42245;42.058;24.700;2023-04-06T01:14:05;15.23;;;10.90;;
56343;SDS011;42245;42.058;24.700;2023-04-06T01:16:31;16.27;;;11.27;;
56343;SDS011;42245;42.058;24.700;2023-04-06T01:18:57;16.83;;;10.80;;
56343;SDS011;42245;42.058;24.700;2023-04-06T01:21:22;15.40;;;10.40;;
56343;SDS011;42245;42.058;24.700;2023-04-06T01:23:48;17.67;;;10.87;;
56343;SDS011;42245;42.058;24.700;2023-04-06T01:26:13;17.73;;;11.57;;
56343;SDS011;42245;42.058;24.700;2023-04-06T01:28:39;16.60;;;11.60;;
56343;SDS011;42245;42.058;24.700;2023-04-06T01:31:07;17.83;;;11.70;;
56343;SDS011;42245;42.058;24.700;2023-04-06T01:33:33;17.00;;;11.47;;
56343;SDS011;42245;42.058;24.700;2023-04-06T01:35:59;16.63;;;11.77;;
56343;SDS011;42245;42.058;24.700;2023-04-06T01:38:25;17.07;;;11.67;;
56343;SDS011;42245;42.058;24.700;2023-04-06T01:40:51;17.67;;;11.97;;
56343;SDS011;42245;42.058;24.700;2023-04-06T01:43:17;18.13;;;12.27;;
56343;SDS011;42245;42.058;24.700;2023-04-06T01:45:43;18.67;;;13.10;;
56343;SDS011;42245;42.058;24.700;2023-04-06T01:48:08;18.83;;;12.10;;
56343;SDS011;42245;42.058;24.700;2023-04-06T01:50:34;19.20;;;12.13;;
56343;SDS011;42245;42.058;24.700;2023-04-06T01:53:00;17.73;;;11.93;;
56343;SDS011;42245;42.058;24.700;2023-04-06T01:55:25;20.27;;;12.47;;
56343;SDS011;42245;42.058;24.700;2023-04-06T01:57:51;17.93;;;12.53;;
56343;SDS011;42245;42.058;24.700;2023-04-06T02:00:17;20.17;;;13.27;;
56343;SDS011;42245;42.058;24.700;2023-04-06T02:02:42;19.80;;;13.43;;
56343;SDS011;42245;42.058;24.700;2023-04-06T02:05:08;20.13;;;13.57;;
56343;SDS011;42245;42.058;24.700;2023-04-06T02:07:33;20.33;;;13.50;;
56343;SDS011;42245;42.058;24.700;2023-04-06T02:09:59;19.50;;;13.03;;
56343;SDS011;42245;42.058;24.700;2023-04-06T02:12:24;21.13;;;13.67;;
56343;SDS011;42245;42.058;24.700;2023-04-06T02:14:50;21.87;;;13.60;;
56343;SDS011;42245;42.058;24.700;2023-04-06T02:17:16;18.40;;;12.77;;
56343;SDS011;42245;42.058;24.700;2023-04-06T02:19:42;18.70;;;12.13;;
56343;SDS011;42245;42.058;24.700;2023-04-06T02:22:07;19.47;;;12.83;;
56343;SDS011;42245;42.058;24.700;2023-04-06T02:24:33;18.87;;;12.87;;
56343;SDS011;42245;42.058;24.700;2023-04-06T02:26:58;18.33;;;12.50;;
56343;SDS011;42245;42.058;24.700;2023-04-06T02:29:24;17.07;;;11.10;;
56343;SDS011;42245;42.058;24.700;2023-04-06T02:31:50;16.37;;;11.47;;
56343;SDS011;42245;42.058;24.700;2023-04-06T02:34:16;20.13;;;12.37;;
56343;SDS011;42245;42.058;24.700;2023-04-06T02:36:46;17.73;;;11.13;;
56343;SDS011;42245;42.058;24.700;2023-04-06T02:39:12;15.60;;;10.70;;
56343;SDS011;42245;42.058;24.700;2023-04-06T02:41:38;16.60;;;11.20;;
56343;SDS011;42245;42.058;24.700;2023-04-06T02:44:05;15.90;;;11.23;;
56343;SDS011;42245;42.058;24.700;2023-04-06T02:46:32;17.80;;;11.77;;
56343;SDS011;42245;42.058;24.700;2023-04-06T02:48:57;17.90;;;10.97;;
56343;SDS011;42245;42.058;24.700;2023-04-06T02:51:25;17.13;;;11.40;;
56343;SDS011;42245;42.058;24.700;2023-04-06T02:53:51;17.03;;;10.90;;
56343;SDS011;42245;42.058;24.700;2023-04-06T02:56:17;16.37;;;11.10;;
56343;SDS011;42245;42.058;24.700;2023-04-06T02:58:42;16.43;;;11.43;;
56343;SDS011;42245;42.058;24.700;2023-04-06T03:01:07;15.73;;;10.60;;
56343;SDS011;42245;42.058;24.700;2023-04-06T03:03:33;16.07;;;10.67;;
56343;SDS011;42245;42.058;24.700;2023-04-06T03:05:58;16.77;;;11.30;;
56343;SDS011;42245;42.058;24.700;2023-04-06T03:08:25;17.03;;;10.87;;
56343;SDS011;42245;42.058;24.700;2023-04-06T03:10:50;14.83;;;10.13;;
56343;SDS011;42245;42.058;24.700;2023-04-06T03:13:16;15.63;;;10.90;;
56343;SDS011;42245;42.058;24.700;2023-04-06T03:15:41;16.60;;;10.73;;
56343;SDS011;42245;42.058;24.700;2023-04-06T03:18:07;15.87;;;10.47;;
56343;SDS011;42245;42.058;24.700;2023-04-06T03:20:32;16.53;;;11.23;;
56343;SDS011;42245;42.058;24.700;2023-04-06T03:22:58;16.17;;;10.50;;
56343;SDS011;42245;42.058;24.700;2023-04-06T03:25:23;13.73;;;9.50;;
56343;SDS011;42245;42.058;24.700;2023-04-06T03:27:49;16.10;;;10.87;;
56343;SDS011;42245;42.058;24.700;2023-04-06T03:30:15;15.17;;;10.30;;
56343;SDS011;42245;42.058;24.700;2023-04-06T03:32:43;15.50;;;10.50;;
56343;SDS011;42245;42.058;24.700;2023-04-06T03:35:09;16.73;;;11.23;;
56343;SDS011;42245;42.058;24.700;2023-04-06T03:37:34;15.37;;;10.43;;
56343;SDS011;42245;42.058;24.700;2023-04-06T03:40:00;14.67;;;10.30;;
56343;SDS011;42245;42.058;24.700;2023-04-06T03:42:26;15.87;;;10.27;;
56343;SDS011;42245;42.058;24.700;2023-04-06T03:44:51;16.23;;;10.60;;
56343;SDS011;42245;42.058;24.700;2023-04-06T03:47:17;16.30;;;10.60;;
56343;SDS011;42245;42.058;24.700;2023-04-06T03:49:42;17.77;;;10.63;;
56343;SDS011;42245;42.058;24.700;2023-04-06T03:52:08;15.90;;;10.83;;
56343;SDS011;42245;42.058;24.700;2023-04-06T03:54:34;14.60;;;9.87;;
56343;SDS011;42245;42.058;24.700;2023-04-06T03:56:59;15.70;;;10.47;;
56343;SDS011;42245;42.058;24.700;2023-04-06T03:59:25;15.80;;;10.10;;
56343;SDS011;42245;42.058;24.700;2023-04-06T04:01:51;14.10;;;9.77;;
56343;SDS011;42245;42.058;24.700;2023-04-06T04:04:16;15.63;;;9.93;;
56343;SDS011;42245;42.058;24.700;2023-04-06T04:06:42;13.77;;;8.73;;
56343;SDS011;42245;42.058;24.700;2023-04-06T04:09:07;14.67;;;9.83;;
56343;SDS011;42245;42.058;24.700;2023-04-06T04:11:33;13.30;;;9.30;;
56343;SDS011;42245;42.058;24.700;2023-04-06T04:13:58;15.27;;;9.60;;
56343;SDS011;42245;42.058;24.700;2023-04-06T04:16:23;14.50;;;9.67;;
56343;SDS011;42245;42.058;24.700;2023-04-06T04:18:49;13.00;;;9.10;;
56343;SDS011;42245;42.058;24.700;2023-04-06T04:21:14;13.83;;;10.27;;
56343;SDS011;42245;42.058;24.700;2023-04-06T04:23:40;13.87;;;10.17;;
56343;SDS011;42245;42.058;24.700;2023-04-06T04:26:05;14.60;;;9.77;;
56343;SDS011;42245;42.058;24.700;2023-04-06T04:28:31;13.80;;;9.63;;
56343;SDS011;42245;42.058;24.700;2023-04-06T04:30:56;14.67;;;9.77;;
56343;SDS011;42245;42.058;24.700;2023-04-06T04:33:22;14.87;;;9.77;;
56343;SDS011;42245;42.058;24.700;2023-04-06T04:35:47;13.93;;;10.20;;
56343;SDS011;42245;42.058;24.700;2023-04-06T04:38:13;15.20;;;10.40;;
56343;SDS011;42245;42.058;24.700;2023-04-06T04:40:38;14.33;;;10.03;;
56343;SDS011;42245;42.058;24.700;2023-04-06T04:43:04;13.83;;;9.47;;
56343;SDS011;42245;42.058;24.700;2023-04-06T04:45:30;17.07;;;10.27;;
56343;SDS011;42245;42.058;24.700;2023-04-06T04:47:55;14.80;;;9.47;;
56343;SDS011;42245;42.058;24.700;2023-04-06T04:50:21;14.17;;;9.70;;
56343;SDS011;42245;42.058;24.700;2023-04-06T04:52:46;15.40;;;10.07;;
56343;SDS011;42245;42.058;24.700;2023-04-06T04:55:12;14.63;;;9.70;;
56343;SDS011;42245;42.058;24.700;2023-04-06T04:57:38;14.07;;;9.63;;
56343;SDS011;42245;42.058;24.700;2023-04-06T05:00:03;15.40;;;10.37;;
56343;SDS011;42245;42.058;24.700;2023-04-06T05:02:29;13.80;;;9.67;;
56343;SDS011;42245;42.058;24.700;2023-04-06T05:04:55;13.07;;;9.07;;
56343;SDS011;42245;42.058;24.700;2023-04-06T05:07:20;14.73;;;9.37;;
56343;SDS011;42245;42.058;24.700;2023-04-06T05:09:46;13.43;;;9.47;;
56343;SDS011;42245;42.058;24.700;2023-04-06T05:12:12;13.20;;;9.37;;
56343;SDS011;42245;42.058;24.700;2023-04-06T05:14:37;11.80;;;8.67;;
56343;SDS011;42245;42.058;24.700;2023-04-06T05:17:03;11.33;;;8.17;;
56343;SDS011;42245;42.058;24.700;2023-04-06T05:19:29;13.17;;;8.83;;
56343;SDS011;42245;42.058;24.700;2023-04-06T05:21:54;11.87;;;8.50;;
56343;SDS011;42245;42.058;24.700;2023-04-06T05:24:20;12.17;;;8.77;;
56343;SDS011;42245;42.058;24.700;2023-04-06T05:26:46;11.37;;;8.30;;
56343;SDS011;42245;42.058;24.700;2023-04-06T05:29:11;11.07;;;7.73;;
56343;SDS011;42245;42.058;24.700;2023-04-06T05:31:37;11.47;;;7.83;;
56343;SDS011;42245;42.058;24.700;2023-04-06T05:34:02;13.67;;;8.60;;
56343;SDS011;42245;42.058;24.700;2023-04-06T05:36:28;10.40;;;7.70;;
56343;SDS011;42245;42.058;24.700;2023-04-06T05:38:53;8.70;;;7.20;;
56343;SDS011;42245;42.058;24.700;2023-04-06T05:41:20;10.93;;;7.73;;
56343;SDS011;42245;42.058;24.700;2023-04-06T05:43:45;9.43;;;7.33;;
56343;SDS011;42245;42.058;24.700;2023-04-06T05:46:11;10.13;;;7.30;;
56343;SDS011;42245;42.058;24.700;2023-04-06T05:48:36;9.13;;;7.70;;
56343;SDS011;42245;42.058;24.700;2023-04-06T05:51:02;12.40;;;7.97;;
56343;SDS011;42245;42.058;24.700;2023-04-06T05:53:31;10.50;;;7.65;;
56343;SDS011;42245;42.058;24.700;2023-04-06T05:55:56;9.60;;;7.43;;
56343;SDS011;42245;42.058;24.700;2023-04-06T05:58:22;10.13;;;7.82;;
56343;SDS011;42245;42.058;24.700;2023-04-06T06:00:48;11.68;;;7.72;;
56343;SDS011;42245;42.058;24.700;2023-04-06T06:03:13;11.57;;;7.82;;
56343;SDS011;42245;42.058;24.700;2023-04-06T06:05:40;9.68;;;7.50;;
56343;SDS011;42245;42.058;24.700;2023-04-06T06:08:05;9.85;;;7.55;;
56343;SDS011;42245;42.058;24.700;2023-04-06T06:10:31;9.50;;;7.13;;
56343;SDS011;42245;42.058;24.700;2023-04-06T06:12:56;9.32;;;7.18;;
56343;SDS011;42245;42.058;24.700;2023-04-06T06:15:22;10.32;;;7.55;;
56343;SDS011;42245;42.058;24.700;2023-04-06T06:17:47;10.90;;;7.88;;
56343;SDS011;42245;42.058;24.700;2023-04-06T06:20:13;15.15;;;7.72;;
56343;SDS011;42245;42.058;24.700;2023-04-06T06:22:38;11.10;;;7.55;;
56343;SDS011;42245;42.058;24.700;2023-04-06T06:25:05;9.73;;;7.13;;
56343;SDS011;42245;42.058;24.700;2023-04-06T06:27:30;9.40;;;7.57;;
56343;SDS011;42245;42.058;24.700;2023-04-06T06:29:56;8.77;;;7.30;;
56343;SDS011;42245;42.058;24.700;2023-04-06T06:32:21;9.80;;;7.90;;
56343;SDS011;42245;42.058;24.700;2023-04-06T06:34:47;11.85;;;8.52;;
56343;SDS011;42245;42.058;24.700;2023-04-06T06:37:12;11.40;;;7.50;;
56343;SDS011;42245;42.058;24.700;2023-04-06T06:39:38;11.38;;;7.32;;
56343;SDS011;42245;42.058;24.700;2023-04-06T06:42:04;9.38;;;7.50;;
56343;SDS011;42245;42.058;24.700;2023-04-06T06:44:30;9.48;;;7.28;;
56343;SDS011;42245;42.058;24.700;2023-04-06T06:46:55;10.27;;;7.47;;
56343;SDS011;42245;42.058;24.700;2023-04-06T06:49:21;9.25;;;7.50;;
56343;SDS011;42245;42.058;24.700;2023-04-06T06:51:46;11.68;;;7.25;;
56343;SDS011;42245;42.058;24.700;2023-04-06T06:54:12;8.43;;;7.00;;
56343;SDS011;42245;42.058;24.700;2023-04-06T06:56:38;10.88;;;7.13;;
56343;SDS011;42245;42.058;24.700;2023-04-06T06:59:04;10.40;;;7.60;;
56343;SDS011;42245;42.058;24.700;2023-04-06T07:01:31;8.68;;;7.03;;
56343;SDS011;42245;42.058;24.700;2023-04-06T07:03:57;8.38;;;6.75;;
56343;SDS011;42245;42.058;24.700;2023-04-06T07:06:23;9.38;;;7.05;;
56343;SDS011;42245;42.058;24.700;2023-04-06T07:08:48;9.25;;;7.07;;
56343;SDS011;42245;42.058;24.700;2023-04-06T07:11:14;9.35;;;6.65;;
56343;SDS011;42245;42.058;24.700;2023-04-06T07:13:39;9.18;;;6.43;;
56343;SDS011;42245;42.058;24.700;2023-04-06T07:16:05;8.20;;;6.40;;
56343;SDS011;42245;42.058;24.700;2023-04-06T07:18:30;8.15;;;6.30;;
56343;SDS011;42245;42.058;24.700;2023-04-06T07:20:56;8.40;;;6.43;;
56343;SDS011;42245;42.058;24.700;2023-04-06T07:23:22;7.88;;;6.78;;
56343;SDS011;42245;42.058;24.700;2023-04-06T07:25:47;9.43;;;6.50;;
56343;SDS011;42245;42.058;24.700;2023-04-06T07:28:13;10.20;;;7.03;;
56343;SDS011;42245;42.058;24.700;2023-04-06T07:30:38;9.13;;;6.93;;
56343;SDS011;42245;42.058;24.700;2023-04-06T07:33:04;8.55;;;7.20;;
56343;SDS011;42245;42.058;24.700;2023-04-06T07:35:30;7.65;;;6.45;;
56343;SDS011;42245;42.058;24.700;2023-04-06T07:37:56;8.15;;;6.78;;
56343;SDS011;42245;42.058;24.700;2023-04-06T07:40:21;8.75;;;6.72;;
56343;SDS011;42245;42.058;24.700;2023-04-06T07:42:47;8.30;;;6.50;;
56343;SDS011;42245;42.058;24.700;2023-04-06T07:45:13;8.23;;;6.75;;
56343;SDS011;42245;42.058;24.700;2023-04-06T07:47:38;8.23;;;6.80;;
56343;SDS011;42245;42.058;24.700;2023-04-06T07:50:04;8.55;;;7.10;;
56343;SDS011;42245;42.058;24.700;2023-04-06T07:52:30;7.30;;;6.40;;
56343;SDS011;42245;42.058;24.700;2023-04-06T07:54:57;6.93;;;5.97;;
56343;SDS011;42245;42.058;24.700;2023-04-06T07:57:23;7.90;;;6.55;;
56343;SDS011;42245;42.058;24.700;2023-04-06T07:59:48;8.32;;;6.15;;
56343;SDS011;42245;42.058;24.700;2023-04-06T08:02:14;5.90;;;4.95;;
56343;SDS011;42245;42.058;24.700;2023-04-06T08:04:40;8.48;;;5.80;;
56343;SDS011;42245;42.058;24.700;2023-04-06T08:07:05;7.38;;;5.80;;
56343;SDS011;42245;42.058;24.700;2023-04-06T08:09:31;6.85;;;6.07;;
56343;SDS011;42245;42.058;24.700;2023-04-06T08:11:57;7.07;;;5.88;;
56343;SDS011;42245;42.058;24.700;2023-04-06T08:14:22;7.40;;;5.68;;
56343;SDS011;42245;42.058;24.700;2023-04-06T08:16:48;9.50;;;6.35;;
56343;SDS011;42245;42.058;24.700;2023-04-06T08:19:13;9.02;;;6.10;;
56343;SDS011;42245;42.058;24.700;2023-04-06T08:21:42;8.55;;;6.63;;
56343;SDS011;42245;42.058;24.700;2023-04-06T08:24:08;7.95;;;6.75;;
56343;SDS011;42245;42.058;24.700;2023-04-06T08:26:33;7.78;;;6.28;;
56343;SDS011;42245;42.058;24.700;2023-04-06T08:28:59;8.80;;;6.57;;
56343;SDS011;42245;42.058;24.700;2023-04-06T08:31:25;7.32;;;6.35;;
56343;SDS011;42245;42.058;24.700;2023-04-06T08:33:51;7.60;;;6.60;;
56343;SDS011;42245;42.058;24.700;2023-04-06T08:36:16;8.98;;;7.25;;
56343;SDS011;42245;42.058;24.700;2023-04-06T08:38:45;9.15;;;6.80;;
56343;SDS011;42245;42.058;24.700;2023-04-06T08:41:11;9.20;;;6.95;;
56343;SDS011;42245;42.058;24.700;2023-04-06T08:43:44;8.25;;;7.18;;
56343;SDS011;42245;42.058;24.700;2023-04-06T08:46:12;8.00;;;6.22;;
56343;SDS011;42245;42.058;24.700;2023-04-06T08:48:38;9.95;;;6.50;;
56343;SDS011;42245;42.058;24.700;2023-04-06T08:51:05;7.25;;;6.20;;
56343;SDS011;42245;42.058;24.700;2023-04-06T08:53:30;9.43;;;7.57;;
56343;SDS011;42245;42.058;24.700;2023-04-06T08:55:56;7.72;;;6.68;;
56343;SDS011;42245;42.058;24.700;2023-04-06T08:58:23;7.60;;;6.50;;
56343;SDS011;42245;42.058;24.700;2023-04-06T09:00:49;8.13;;;7.10;;
56343;SDS011;42245;42.058;24.700;2023-04-06T09:03:15;24.20;;;13.57;;
56343;SDS011;42245;42.058;24.700;2023-04-06T09:05:42;10.07;;;7.65;;
56343;SDS011;42245;42.058;24.700;2023-04-06T09:08:08;9.85;;;8.50;;
56343;SDS011;42245;42.058;24.700;2023-04-06T09:10:34;10.93;;;8.70;;
56343;SDS011;42245;42.058;24.700;2023-04-06T09:13:04;10.18;;;7.95;;
56343;SDS011;42245;42.058;24.700;2023-04-06T09:15:30;8.48;;;7.13;;
56343;SDS011;42245;42.058;24.700;2023-04-06T09:17:55;8.98;;;7.50;;
56343;SDS011;42245;42.058;24.700;2023-04-06T09:20:22;9.20;;;7.00;;
56343;SDS011;42245;42.058;24.700;2023-04-06T09:22:50;7.57;;;6.63;;
56343;SDS011;42245;42.058;24.700;2023-04-06T09:25:20;8.30;;;7.30;;
56343;SDS011;42245;42.058;24.700;2023-04-06T09:27:47;9.73;;;7.18;;
56343;SDS011;42245;42.058;24.700;2023-04-06T09:30:14;8.10;;;6.75;;
56343;SDS011;42245;42.058;24.700;2023-04-06T09:32:48;9.35;;;7.20;;
56343;SDS011;42245;42.058;24.700;2023-04-06T09:35:15;7.93;;;6.70;;
56343;SDS011;42245;42.058;24.700;2023-04-06T09:37:43;8.63;;;6.88;;
56343;SDS011;42245;42.058;24.700;2023-04-06T09:40:09;8.88;;;6.95;;
56343;SDS011;42245;42.058;24.700;2023-04-06T09:42:35;9.90;;;8.23;;
56343;SDS011;42245;42.058;24.700;2023-04-06T09:45:01;10.68;;;7.38;;
56343;SDS011;42245;42.058;24.700;2023-04-06T09:47:28;11.32;;;7.80;;
56343;SDS011;42245;42.058;24.700;2023-04-06T09:49:56;9.65;;;7.00;;
56343;SDS011;42245;42.058;24.700;2023-04-06T09:52:26;10.15;;;7.40;;
56343;SDS011;42245;42.058;24.700;2023-04-06T09:54:55;9.07;;;7.00;;
56343;SDS011;42245;42.058;24.700;2023-04-06T10:00:08;10.27;;;7.97;;
56343;SDS011;42245;42.058;24.700;2023-04-06T10:02:43;9.95;;;8.40;;
56343;SDS011;42245;42.058;24.700;2023-04-06T10:05:19;10.80;;;8.02;;
56343;SDS011;42245;42.058;24.700;2023-04-06T10:07:50;9.68;;;7.78;;
56343;SDS011;42245;42.058;24.700;2023-04-06T10:10:19;11.10;;;8.07;;
56343;SDS011;42245;42.058;24.700;2023-04-06T10:12:45;12.90;;;7.40;;
56343;SDS011;42245;42.058;24.700;2023-04-06T10:15:11;8.50;;;7.03;;
56343;SDS011;42245;42.058;24.700;2023-04-06T10:17:37;9.90;;;6.47;;
56343;SDS011;42245;42.058;24.700;2023-04-06T10:20:14;7.60;;;6.22;;
56343;SDS011;42245;42.058;24.700;2023-04-06T10:22:51;9.00;;;6.97;;
56343;SDS011;42245;42.058;24.700;2023-04-06T10:25:31;8.85;;;6.72;;
56343;SDS011;42245;42.058;24.700;2023-04-06T10:28:01;10.98;;;7.10;;
56343;SDS011;42245;42.058;24.700;2023-04-06T10:30:30;10.25;;;7.13;;
56343;SDS011;42245;42.058;24.700;2023-04-06T10:32:56;8.45;;;6.70;;
56343;SDS011;42245;42.058;24.700;2023-04-06T10:35:21;7.45;;;5.88;;
56343;SDS011;42245;42.058;24.700;2023-04-06T10:37:49;9.70;;;6.65;;
56343;SDS011;42245;42.058;24.700;2023-04-06T10:40:19;9.10;;;6.60;;
56343;SDS011;42245;42.058;24.700;2023-04-06T10:42:49;11.05;;;6.45;;
56343;SDS011;42245;42.058;24.700;2023-04-06T10:45:22;9.55;;;6.45;;
56343;SDS011;42245;42.058;24.700;2023-04-06T10:47:54;9.38;;;6.75;;
56343;SDS011;42245;42.058;24.700;2023-04-06T10:50:20;8.90;;;6.70;;
56343;SDS011;42245;42.058;24.700;2023-04-06T10:52:46;9.25;;;6.93;;
56343;SDS011;42245;42.058;24.700;2023-04-06T10:55:15;8.80;;;6.38;;
56343;SDS011;42245;42.058;24.700;2023-04-06T10:57:41;9.77;;;6.80;;
56343;SDS011;42245;42.058;24.700;2023-04-06T11:00:07;8.73;;;6.85;;
56343;SDS011;42245;42.058;24.700;2023-04-06T11:02:34;12.02;;;8.05;;
56343;SDS011;42245;42.058;24.700;2023-04-06T11:05:01;9.40;;;7.25;;
56343;SDS011;42245;42.058;24.700;2023-04-06T11:07:27;10.30;;;7.20;;
56343;SDS011;42245;42.058;24.700;2023-04-06T11:09:55;7.93;;;6.70;;
56343;SDS011;42245;42.058;24.700;2023-04-06T11:12:24;8.63;;;7.32;;
56343;SDS011;42245;42.058;24.700;2023-04-06T11:14:57;9.27;;;7.00;;
56343;SDS011;42245;42.058;24.700;2023-04-06T11:17:29;8.68;;;7.20;;
56343;SDS011;42245;42.058;24.700;2023-04-06T11:19:55;10.10;;;6.93;;
56343;SDS011;42245;42.058;24.700;2023-04-06T11:22:21;9.38;;;7.00;;
56343;SDS011;42245;42.058;24.700;2023-04-06T11:24:47;8.82;;;6.55;;
56343;SDS011;42245;42.058;24.700;2023-04-06T11:27:14;8.48;;;6.85;;
56343;SDS011;42245;42.058;24.700;2023-04-06T11:29:42;9.88;;;6.88;;
56343;SDS011;42245;42.058;24.700;2023-04-06T11:32:08;9.35;;;7.30;;
56343;SDS011;42245;42.058;24.700;2023-04-06T11:34:37;8.77;;;7.38;;
56343;SDS011;42245;42.058;24.700;2023-04-06T11:37:12;9.52;;;7.13;;
56343;SDS011;42245;42.058;24.700;2023-04-06T11:39:51;10.60;;;6.90;;
56343;SDS011;42245;42.058;24.700;2023-04-06T11:42:24;9.98;;;7.38;;
56343;SDS011;42245;42.058;24.700;2023-04-06T11:44:51;10.23;;;7.18;;
56343;SDS011;42245;42.058;24.700;2023-04-06T11:47:19;10.25;;;7.78;;
56343;SDS011;42245;42.058;24.700;2023-04-06T11:49:45;9.57;;;7.28;;
56343;SDS011;42245;42.058;24.700;2023-04-06T11:52:18;11.63;;;8.32;;
56343;SDS011;42245;42.058;24.700;2023-04-06T11:54:45;8.98;;;7.60;;
56343;SDS011;42245;42.058;24.700;2023-04-06T11:57:11;11.38;;;7.90;;
56343;SDS011;42245;42.058;24.700;2023-04-06T11:59:36;9.93;;;7.50;;
56343;SDS011;42245;42.058;24.700;2023-04-06T12:02:02;10.93;;;7.88;;
56343;SDS011;42245;42.058;24.700;2023-04-06T12:04:30;10.75;;;7.82;;
56343;SDS011;42245;42.058;24.700;2023-04-06T12:06:56;11.18;;;8.10;;
56343;SDS011;42245;42.058;24.700;2023-04-06T12:09:21;12.40;;;8.32;;
56343;SDS011;42245;42.058;24.700;2023-04-06T12:11:47;12.52;;;7.68;;
56343;SDS011;42245;42.058;24.700;2023-04-06T12:14:13;13.30;;;7.60;;
56343;SDS011;42245;42.058;24.700;2023-04-06T12:16:38;11.13;;;7.60;;
56343;SDS011;42245;42.058;24.700;2023-04-06T12:19:04;10.15;;;8.23;;
56343;SDS011;42245;42.058;24.700;2023-04-06T12:21:30;11.98;;;7.68;;
56343;SDS011;42245;42.058;24.700;2023-04-06T12:23:59;14.00;;;8.13;;
56343;SDS011;42245;42.058;24.700;2023-04-06T12:26:25;12.07;;;8.02;;
56343;SDS011;42245;42.058;24.700;2023-04-06T12:28:51;10.10;;;7.45;;
56343;SDS011;42245;42.058;24.700;2023-04-06T12:31:17;10.52;;;8.00;;
56343;SDS011;42245;42.058;24.700;2023-04-06T12:33:43;13.30;;;7.63;;
56343;SDS011;42245;42.058;24.700;2023-04-06T12:36:14;10.57;;;7.93;;
56343;SDS011;42245;42.058;24.700;2023-04-06T12:38:41;9.95;;;8.15;;
56343;SDS011;42245;42.058;24.700;2023-04-06T12:41:07;9.98;;;7.95;;
56343;SDS011;42245;42.058;24.700;2023-04-06T12:43:32;11.30;;;8.43;;
56343;SDS011;42245;42.058;24.700;2023-04-06T12:45:58;10.20;;;7.32;;
56343;SDS011;42245;42.058;24.700;2023-04-06T12:48:24;8.93;;;7.40;;
56343;SDS011;42245;42.058;24.700;2023-04-06T12:51:09;14.95;;;8.32;;
56343;SDS011;42245;42.058;24.700;2023-04-06T12:53:34;10.82;;;7.78;;
56343;SDS011;42245;42.058;24.700;2023-04-06T12:56:00;9.68;;;7.43;;
56343;SDS011;42245;42.058;24.700;2023-04-06T12:58:26;10.88;;;7.80;;
56343;SDS011;42245;42.058;24.700;2023-04-06T13:00:53;8.82;;;7.45;;
56343;SDS011;42245;42.058;24.700;2023-04-06T13:03:19;14.70;;;7.68;;
56343;SDS011;42245;42.058;24.700;2023-04-06T13:05:45;10.05;;;7.20;;
56343;SDS011;42245;42.058;24.700;2023-04-06T13:08:19;11.75;;;7.95;;
56343;SDS011;42245;42.058;24.700;2023-04-06T13:10:49;12.73;;;8.10;;
56343;SDS011;42245;42.058;24.700;2023-04-06T13:13:24;11.70;;;7.47;;
56343;SDS011;42245;42.058;24.700;2023-04-06T13:15:51;9.40;;;7.07;;
56343;SDS011;42245;42.058;24.700;2023-04-06T13:18:17;10.63;;;7.15;;
56343;SDS011;42245;42.058;24.700;2023-04-06T13:20:43;13.38;;;7.75;;
56343;SDS011;42245;42.058;24.700;2023-04-06T13:23:08;8.52;;;7.05;;
56343;SDS011;42245;42.058;24.700;2023-04-06T13:25:34;9.88;;;7.32;;
56343;SDS011;42245;42.058;24.700;2023-04-06T13:27:59;9.85;;;7.47;;
56343;SDS011;42245;42.058;24.700;2023-04-06T13:30:25;9.45;;;7.50;;
56343;SDS011;42245;42.058;24.700;2023-04-06T13:32:51;12.77;;;7.63;;
56343;SDS011;42245;42.058;24.700;2023-04-06T13:35:16;11.32;;;7.68;;
56343;SDS011;42245;42.058;24.700;2023-04-06T13:37:42;11.07;;;7.57;;
56343;SDS011;42245;42.058;24.700;2023-04-06T13:40:08;9.55;;;7.82;;
56343;SDS011;42245;42.058;24.700;2023-04-06T13:42:34;10.75;;;7.93;;
56343;SDS011;42245;42.058;24.700;2023-04-06T13:45:00;10.48;;;8.10;;
56343;SDS011;42245;42.058;24.700;2023-04-06T13:47:26;13.20;;;7.72;;
56343;SDS011;42245;42.058;24.700;2023-04-06T13:49:52;10.68;;;8.18;;
56343;SDS011;42245;42.058;24.700;2023-04-06T13:52:19;8.30;;;6.82;;
56343;SDS011;42245;42.058;24.700;2023-04-06T13:54:45;10.85;;;7.43;;
56343;SDS011;42245;42.058;24.700;2023-04-06T13:57:11;9.70;;;7.00;;
56343;SDS011;42245;42.058;24.700;2023-04-06T13:59:37;11.98;;;7.75;;
56343;SDS011;42245;42.058;24.700;2023-04-06T14:02:03;8.82;;;7.30;;
56343;SDS011;42245;42.058;24.700;2023-04-06T14:04:30;21.33;;;12.05;;
56343;SDS011;42245;42.058;24.700;2023-04-06T14:06:57;9.40;;;7.40;;
56343;SDS011;42245;42.058;24.700;2023-04-06T14:09:24;9.40;;;7.28;;
56343;SDS011;42245;42.058;24.700;2023-04-06T14:11:50;10.88;;;7.65;;
56343;SDS011;42245;42.058;24.700;2023-04-06T14:14:16;10.52;;;7.90;;
56343;SDS011;42245;42.058;24.700;2023-04-06T14:16:42;8.73;;;7.60;;
56343;SDS011;42245;42.058;24.700;2023-04-06T14:19:11;10.25;;;7.63;;
56343;SDS011;42245;42.058;24.700;2023-04-06T14:21:38;10.27;;;7.97;;